createdAt,value
2023-04-19T00:01:16.622Z,99.90
2023-04-19T00:03:43.348Z,99.90
2023-04-19T00:06:10.237Z,99.90
2023-04-19T00:08:36.907Z,99.90
2023-04-19T00:11:03.557Z,99.90
2023-04-19T00:13:30.216Z,99.90
2023-04-19T00:15:56.839Z,99.90
2023-04-19T00:18:23.450Z,99.90
2023-04-19T00:20:50.137Z,99.90
2023-04-19T00:23:16.950Z,99.90
2023-04-19T00:25:43.634Z,99.90
2023-04-19T00:28:10.371Z,99.90
2023-04-19T00:30:36.984Z,99.90
2023-04-19T00:33:03.792Z,99.90
2023-04-19T00:35:30.537Z,99.90
2023-04-19T00:37:57.361Z,99.90
2023-04-19T00:40:24.141Z,99.90
2023-04-19T00:42:50.859Z,99.90
2023-04-19T00:45:17.465Z,99.90
2023-04-19T00:47:44.141Z,99.90
2023-04-19T00:50:12.183Z,99.90
2023-04-19T00:52:39.280Z,99.90
2023-04-19T00:55:07.034Z,99.90
2023-04-19T00:57:33.793Z,99.90
2023-04-19T01:00:01.182Z,99.90
2023-04-19T01:02:28.542Z,99.90
2023-04-19T01:04:55.630Z,99.90
2023-04-19T01:07:22.341Z,99.90
2023-04-19T01:09:48.952Z,99.90
2023-04-19T01:12:15.642Z,99.90
2023-04-19T01:14:42.296Z,99.90
2023-04-19T01:17:09.506Z,99.90
2023-04-19T01:19:36.973Z,99.90
2023-04-19T01:22:04.117Z,99.90
2023-04-19T01:24:31.156Z,99.90
2023-04-19T01:26:57.959Z,99.90
2023-04-19T01:29:24.728Z,99.90
2023-04-19T01:31:53.762Z,99.90
2023-04-19T01:34:20.814Z,99.90
2023-04-19T01:36:47.519Z,99.90
2023-04-19T01:39:14.155Z,99.90
2023-04-19T01:41:40.910Z,99.90
2023-04-19T01:44:07.630Z,99.90
2023-04-19T01:46:35.081Z,99.90
2023-04-19T01:49:01.737Z,99.90
2023-04-19T01:51:28.316Z,99.90
2023-04-19T01:53:54.997Z,99.90
2023-04-19T01:56:24.822Z,99.90
2023-04-19T01:58:51.442Z,99.90
2023-04-19T02:01:18.065Z,99.90
2023-04-19T02:03:44.838Z,99.90
2023-04-19T02:06:12.910Z,99.90
2023-04-19T02:08:42.903Z,99.90
2023-04-19T02:11:10.581Z,99.90
2023-04-19T02:13:37.554Z,99.90
2023-04-19T02:16:05.856Z,99.90
2023-04-19T02:18:33.374Z,99.90
2023-04-19T02:21:00.258Z,99.90
2023-04-19T02:23:26.957Z,99.90
2023-04-19T02:25:53.725Z,99.90
2023-04-19T02:28:20.517Z,99.90
2023-04-19T02:30:47.174Z,99.90
2023-04-19T02:33:14.748Z,99.90
2023-04-19T02:35:41.613Z,99.90
2023-04-19T02:38:08.222Z,99.90
2023-04-19T02:40:34.894Z,99.90
2023-04-19T02:43:01.524Z,99.90
2023-04-19T02:45:28.100Z,99.90
2023-04-19T02:47:55.183Z,99.90
2023-04-19T02:50:21.872Z,99.90
2023-04-19T02:52:48.756Z,99.90
2023-04-19T02:55:15.532Z,99.90
2023-04-19T02:57:42.314Z,99.90
2023-04-19T03:00:10.325Z,99.90
2023-04-19T03:02:38.010Z,99.90
2023-04-19T03:05:05.223Z,99.90
2023-04-19T03:07:31.908Z,99.90
2023-04-19T03:09:58.662Z,99.90
2023-04-19T03:12:25.287Z,99.90
2023-04-19T03:14:51.943Z,99.90
2023-04-19T03:17:18.604Z,99.90
2023-04-19T03:19:45.313Z,99.90
2023-04-19T03:22:11.930Z,99.90
2023-04-19T03:24:38.521Z,99.90
2023-04-19T03:27:05.331Z,99.90
2023-04-19T03:29:32.018Z,99.90
2023-04-19T03:31:58.618Z,99.90
2023-04-19T03:34:25.261Z,99.90
2023-04-19T03:36:51.865Z,99.90
2023-04-19T03:39:18.500Z,99.90
2023-04-19T03:41:45.187Z,99.90
2023-04-19T03:44:11.880Z,99.90
2023-04-19T03:46:38.586Z,99.90
2023-04-19T03:49:06.065Z,99.90
2023-04-19T03:51:32.669Z,99.90
2023-04-19T03:53:59.324Z,99.90
2023-04-19T03:56:25.983Z,99.90
2023-04-19T03:58:52.732Z,99.90
2023-04-19T04:01:20.751Z,99.90
2023-04-19T04:03:47.894Z,99.90
2023-04-19T04:06:14.892Z,99.90
2023-04-19T04:08:41.549Z,99.90
2023-04-19T04:11:08.160Z,99.90
2023-04-19T04:13:34.802Z,99.90
2023-04-19T04:16:01.466Z,99.90
2023-04-19T04:18:28.598Z,99.90
2023-04-19T04:20:55.579Z,99.90
2023-04-19T04:23:22.750Z,99.90
2023-04-19T04:26:00.879Z,99.90
2023-04-19T04:28:28.226Z,99.90
2023-04-19T04:30:59.110Z,99.90
2023-04-19T04:33:29.106Z,99.90
2023-04-19T04:35:56.738Z,99.90
2023-04-19T04:38:24.902Z,99.90
2023-04-19T04:40:56.012Z,99.90
2023-04-19T04:43:24.221Z,99.90
2023-04-19T04:45:51.792Z,99.90
2023-04-19T04:48:18.472Z,99.90
2023-04-19T04:50:45.520Z,99.90
2023-04-19T04:53:13.044Z,99.90
2023-04-19T04:55:39.944Z,99.90
2023-04-19T04:58:07.061Z,99.90
2023-04-19T05:00:34.323Z,99.90
2023-04-19T05:03:02.157Z,99.90
2023-04-19T05:05:29.060Z,99.90
2023-04-19T05:07:55.776Z,99.90
2023-04-19T05:10:22.368Z,99.90
2023-04-19T05:12:49.035Z,99.90
2023-04-19T05:15:15.698Z,99.90
2023-04-19T05:17:43.218Z,99.90
2023-04-19T05:20:10.393Z,99.90
2023-04-19T05:22:37.528Z,99.90
2023-04-19T05:25:04.887Z,99.90
2023-04-19T05:27:31.532Z,99.90
2023-04-19T05:29:58.136Z,99.90
2023-04-19T05:32:24.810Z,99.90
2023-04-19T05:34:51.545Z,99.90
2023-04-19T05:37:18.173Z,99.90
2023-04-19T05:39:44.991Z,99.90
2023-04-19T05:42:11.714Z,99.90
2023-04-19T05:44:38.370Z,99.90
2023-04-19T05:47:05.071Z,99.90
2023-04-19T05:49:31.745Z,99.90
2023-04-19T05:51:58.458Z,99.90
2023-04-19T05:54:25.232Z,99.90
2023-04-19T05:56:51.884Z,99.90
2023-04-19T05:59:18.526Z,99.90
2023-04-19T06:01:45.291Z,99.90
2023-04-19T06:04:12.096Z,99.90
2023-04-19T06:06:39.210Z,99.90
2023-04-19T06:09:07.054Z,99.90
2023-04-19T06:11:42.826Z,99.90
2023-04-19T06:14:16.804Z,99.90
2023-04-19T06:16:43.592Z,99.90
2023-04-19T06:19:10.291Z,99.90
2023-04-19T06:21:36.978Z,99.90
2023-04-19T06:24:03.890Z,99.90
2023-04-19T06:26:30.558Z,99.90
2023-04-19T06:28:57.206Z,99.90
2023-04-19T06:31:23.993Z,99.90
2023-04-19T06:33:50.985Z,99.90
2023-04-19T06:36:17.788Z,99.90
2023-04-19T06:38:47.165Z,99.90
2023-04-19T06:41:13.810Z,99.90
2023-04-19T06:43:41.912Z,99.90
2023-04-19T06:46:09.811Z,99.90
2023-04-19T06:48:36.612Z,99.90
2023-04-19T06:51:03.348Z,99.90
2023-04-19T06:53:30.200Z,99.90
2023-04-19T06:56:02.329Z,99.90
2023-04-19T06:58:29.139Z,99.90
2023-04-19T07:00:56.273Z,99.90
2023-04-19T07:03:23.266Z,99.90
2023-04-19T07:05:52.247Z,99.90
2023-04-19T07:08:18.873Z,99.90
2023-04-19T07:10:45.675Z,99.90
2023-04-19T07:13:12.440Z,99.90
2023-04-19T07:15:39.154Z,99.90
2023-04-19T07:18:05.906Z,99.90
2023-04-19T07:20:32.811Z,99.90
2023-04-19T07:22:59.695Z,99.90
2023-04-19T07:25:26.610Z,99.90
2023-04-19T07:27:54.837Z,99.90
2023-04-19T07:30:21.608Z,99.90
2023-04-19T07:32:48.410Z,99.90
2023-04-19T07:35:15.212Z,99.90
2023-04-19T07:37:42.329Z,99.90
2023-04-19T07:40:09.798Z,99.90
2023-04-19T07:42:36.417Z,99.90
2023-04-19T07:45:03.266Z,99.90
2023-04-19T07:47:29.927Z,99.90
2023-04-19T07:49:56.575Z,99.90
2023-04-19T07:52:23.201Z,99.90
2023-04-19T07:54:49.818Z,99.90
2023-04-19T07:57:16.440Z,99.90
2023-04-19T07:59:43.061Z,99.90
2023-04-19T08:02:09.883Z,99.90
2023-04-19T08:04:37.941Z,99.90
2023-04-19T08:07:04.928Z,99.90
2023-04-19T08:09:34.020Z,99.90
2023-04-19T08:12:01.358Z,99.90
2023-04-19T08:14:37.277Z,99.90
2023-04-19T08:17:24.253Z,99.90
2023-04-19T08:19:53.761Z,99.90
2023-04-19T08:22:21.184Z,99.90
2023-04-19T08:24:51.604Z,99.90
2023-04-19T08:27:19.010Z,99.90
2023-04-19T08:29:46.072Z,99.90
2023-04-19T08:32:13.583Z,99.90
2023-04-19T08:34:40.814Z,99.90
2023-04-19T08:37:07.563Z,99.90
2023-04-19T08:39:35.177Z,99.90
2023-04-19T08:42:13.249Z,99.90
2023-04-19T08:45:06.290Z,99.90
2023-04-19T08:47:51.796Z,99.90
2023-04-19T08:50:32.541Z,99.90
2023-04-19T08:53:09.074Z,99.90
2023-04-19T08:56:06.775Z,99.90
2023-04-19T09:01:06.491Z,99.90
2023-04-19T09:03:40.873Z,99.90
2023-04-19T09:06:12.088Z,99.90
2023-04-19T09:08:40.656Z,99.90
2023-04-19T09:11:07.435Z,99.90
2023-04-19T09:13:36.767Z,99.90
2023-04-19T09:16:04.903Z,99.90
2023-04-19T09:18:33.191Z,99.90
2023-04-19T09:21:02.533Z,99.90
2023-04-19T09:23:29.205Z,99.90
2023-04-19T09:26:22.116Z,99.90
2023-04-19T09:29:02.285Z,99.90
2023-04-19T09:31:50.166Z,99.90
2023-04-19T09:34:18.700Z,99.90
2023-04-19T09:36:46.611Z,99.90
2023-04-19T09:39:14.649Z,99.90
2023-04-19T09:41:54.771Z,99.90
2023-04-19T09:44:58.776Z,99.90
2023-04-19T09:47:29.990Z,99.90
2023-04-19T09:50:22.518Z,99.90
2023-04-19T09:52:52.375Z,99.90
2023-04-19T09:55:26.690Z,99.90
2023-04-19T09:57:55.274Z,99.90
2023-04-19T10:00:23.259Z,99.90
2023-04-19T10:02:55.625Z,99.90
2023-04-19T10:05:24.127Z,99.90
2023-04-19T10:07:53.280Z,99.90
2023-04-19T10:10:27.623Z,98.30
2023-04-19T10:13:20.740Z,98.20
2023-04-19T10:15:53.846Z,98.50
2023-04-19T10:18:24.362Z,97.50
2023-04-19T10:20:57.728Z,95.40
2023-04-19T10:23:24.876Z,95.00
2023-04-19T10:25:57.510Z,96.10
2023-04-19T10:28:24.362Z,93.80
2023-04-19T10:30:56.223Z,94.00
2023-04-19T10:33:27.754Z,93.20
2023-04-19T10:35:58.973Z,91.80
2023-04-19T10:38:38.591Z,91.20
2023-04-19T10:41:13.641Z,91.00
2023-04-19T10:44:09.860Z,90.90
2023-04-19T10:46:40.179Z,86.60
2023-04-19T10:49:10.170Z,89.20
2023-04-19T10:51:38.919Z,88.40
2023-04-19T10:54:10.230Z,85.30
2023-04-19T10:56:36.817Z,88.40
2023-04-19T10:59:11.381Z,84.20
2023-04-19T11:01:46.486Z,86.20
2023-04-19T11:04:13.407Z,81.00
2023-04-19T11:06:52.680Z,83.20
2023-04-19T11:09:31.610Z,81.40
2023-04-19T11:12:03.361Z,80.40
2023-04-19T11:14:36.867Z,78.90
2023-04-19T11:17:15.437Z,78.90
2023-04-19T11:19:58.421Z,80.20
2023-04-19T11:22:36.039Z,80.00
2023-04-19T11:25:17.341Z,76.70
2023-04-19T11:27:46.355Z,75.60
2023-04-19T11:30:16.759Z,73.40
2023-04-19T11:32:48.276Z,72.10
2023-04-19T11:35:15.801Z,72.70
2023-04-19T11:37:42.494Z,74.60
2023-04-19T11:40:14.285Z,72.10
2023-04-19T11:42:41.066Z,70.30
2023-04-19T11:45:18.688Z,67.50
2023-04-19T11:47:53.194Z,65.80
2023-04-19T11:50:38.035Z,67.00
2023-04-19T11:53:20.385Z,65.00
2023-04-19T11:55:53.549Z,63.10
2023-04-19T11:58:29.083Z,64.40
2023-04-19T12:00:58.289Z,64.20
2023-04-19T12:03:26.718Z,62.30
2023-04-19T12:05:58.560Z,62.40
2023-04-19T12:08:36.459Z,59.90
2023-04-19T12:11:04.310Z,60.30
2023-04-19T12:13:32.009Z,56.30
2023-04-19T12:15:59.126Z,57.70
2023-04-19T12:18:27.213Z,56.70
2023-04-19T12:20:54.852Z,55.00
2023-04-19T12:23:21.661Z,54.50
2023-04-19T12:25:49.847Z,55.40
2023-04-19T12:28:17.051Z,54.90
2023-04-19T12:30:44.107Z,54.50
2023-04-19T12:33:10.947Z,53.80
2023-04-19T12:35:38.523Z,56.20
2023-04-19T12:38:05.330Z,55.50
2023-04-19T12:40:32.226Z,55.20
2023-04-19T12:42:58.878Z,57.80
2023-04-19T12:45:25.577Z,52.10
2023-04-19T12:47:52.376Z,52.00
2023-04-19T12:50:19.047Z,54.00
2023-04-19T12:52:46.227Z,52.60
2023-04-19T12:55:13.105Z,54.10
2023-04-19T12:57:39.807Z,50.50
2023-04-19T13:00:10.986Z,51.00
2023-04-19T13:02:37.921Z,52.30
2023-04-19T13:05:06.309Z,55.10
2023-04-19T13:07:33.159Z,53.20
2023-04-19T13:10:00.126Z,54.30
2023-04-19T13:12:27.748Z,55.00
2023-04-19T13:14:54.674Z,55.80
2023-04-19T13:17:21.435Z,55.60
2023-04-19T13:19:48.115Z,55.10
2023-04-19T13:22:15.570Z,53.00
2023-04-19T13:24:42.271Z,52.40
2023-04-19T13:27:09.371Z,53.20
2023-04-19T13:29:36.478Z,52.50
2023-04-19T13:32:07.119Z,53.00
2023-04-19T13:34:34.104Z,51.30
2023-04-19T13:37:00.938Z,52.40
2023-04-19T13:39:27.549Z,50.80
2023-04-19T13:41:54.198Z,53.60
2023-04-19T13:44:20.837Z,53.00
2023-04-19T13:46:47.572Z,50.00
2023-04-19T13:49:14.231Z,49.70
2023-04-19T13:51:49.715Z,51.30
2023-04-19T13:54:19.007Z,51.30
2023-04-19T13:56:46.343Z,50.40
2023-04-19T13:59:13.070Z,53.50
2023-04-19T14:01:40.620Z,51.40
2023-04-19T14:04:07.561Z,51.70
2023-04-19T14:06:34.422Z,50.30
2023-04-19T14:09:01.040Z,50.40
2023-04-19T14:11:28.064Z,50.50
2023-04-19T14:13:54.856Z,50.40
2023-04-19T14:16:24.183Z,51.50
2023-04-19T14:18:51.236Z,43.10
2023-04-19T14:21:17.941Z,43.00
2023-04-19T14:23:44.607Z,41.90
2023-04-19T14:26:11.260Z,42.10
2023-04-19T14:28:37.876Z,41.10
2023-04-19T14:31:04.619Z,44.50
2023-04-19T14:33:31.891Z,42.70
2023-04-19T14:35:58.609Z,45.30
2023-04-19T14:38:25.263Z,45.20
2023-04-19T14:40:51.875Z,46.40
2023-04-19T14:43:18.529Z,46.30
2023-04-19T14:45:45.181Z,45.40
2023-04-19T14:48:11.903Z,43.90
2023-04-19T14:50:38.692Z,45.90
2023-04-19T14:53:05.419Z,47.20
2023-04-19T14:55:32.058Z,48.00
2023-04-19T14:57:58.684Z,46.70
2023-04-19T15:00:25.552Z,46.40
2023-04-19T15:02:52.293Z,48.70
2023-04-19T15:05:19.242Z,48.00
2023-04-19T15:07:45.956Z,47.80
2023-04-19T15:10:12.579Z,48.50
2023-04-19T15:12:39.198Z,46.80
2023-04-19T15:15:06.970Z,48.60
2023-04-19T15:17:33.665Z,47.50
2023-04-19T15:20:00.406Z,47.60
2023-04-19T15:22:27.091Z,48.10
2023-04-19T15:24:53.724Z,49.10
2023-04-19T15:27:20.328Z,48.70
2023-04-19T15:29:48.123Z,48.00
2023-04-19T15:32:14.763Z,50.00
2023-04-19T15:34:41.397Z,50.70
2023-04-19T15:37:08.539Z,49.20
2023-04-19T15:39:35.298Z,48.80
2023-04-19T15:42:02.056Z,51.60
2023-04-19T15:44:28.929Z,52.00
2023-04-19T15:46:56.159Z,51.30
2023-04-19T15:49:23.023Z,52.80
2023-04-19T15:51:49.608Z,51.70
2023-04-19T15:54:16.352Z,51.10
2023-04-19T15:56:43.082Z,50.20
2023-04-19T15:59:09.709Z,51.00
2023-04-19T16:01:36.439Z,48.70
2023-04-19T16:04:03.961Z,52.50
2023-04-19T16:06:30.769Z,50.60
2023-04-19T16:08:57.397Z,49.80
2023-04-19T16:11:24.353Z,52.60
2023-04-19T16:13:51.095Z,53.10
2023-04-19T16:16:17.758Z,53.20
2023-04-19T16:18:44.415Z,55.60
2023-04-19T16:21:11.057Z,54.00
2023-04-19T16:23:37.763Z,54.60
2023-04-19T16:26:04.580Z,54.70
2023-04-19T16:28:31.197Z,55.30
2023-04-19T16:30:57.802Z,53.30
2023-04-19T16:33:24.408Z,53.90
2023-04-19T16:35:51.229Z,53.70
2023-04-19T16:38:17.863Z,54.60
2023-04-19T16:40:47.699Z,54.80
2023-04-19T16:43:14.380Z,55.70
2023-04-19T16:45:42.735Z,55.70
2023-04-19T16:48:09.442Z,55.40
2023-04-19T16:50:36.158Z,55.80
2023-04-19T16:53:02.763Z,54.80
2023-04-19T16:55:29.491Z,55.00
2023-04-19T16:57:56.111Z,55.60
2023-04-19T17:00:23.249Z,56.00
2023-04-19T17:02:50.029Z,57.20
2023-04-19T17:05:16.793Z,57.90
2023-04-19T17:07:43.871Z,56.90
2023-04-19T17:10:10.891Z,56.70
2023-04-19T17:12:37.517Z,56.40
2023-04-19T17:15:04.583Z,57.20
2023-04-19T17:17:31.252Z,58.10
2023-04-19T17:19:58.003Z,55.90
2023-04-19T17:22:24.790Z,57.90
2023-04-19T17:24:51.554Z,58.40
2023-04-19T17:27:18.160Z,56.50
2023-04-19T17:29:44.938Z,56.60
2023-04-19T17:32:11.642Z,57.80
2023-04-19T17:34:38.318Z,58.70
2023-04-19T17:37:04.941Z,58.90
2023-04-19T17:39:31.610Z,58.90
2023-04-19T17:41:58.428Z,57.80
2023-04-19T17:44:25.081Z,57.50
2023-04-19T17:46:51.811Z,56.70
2023-04-19T17:49:20.060Z,57.10
2023-04-19T17:51:47.404Z,58.50
2023-04-19T17:54:14.624Z,57.50
2023-04-19T17:56:41.278Z,56.20
2023-04-19T17:59:08.437Z,58.70
2023-04-19T18:01:35.154Z,57.90
2023-04-19T18:04:02.667Z,57.30
2023-04-19T18:06:29.526Z,57.60
2023-04-19T18:08:56.127Z,57.90
2023-04-19T18:11:22.855Z,58.80
2023-04-19T18:13:49.507Z,59.90
2023-04-19T18:16:17.307Z,59.30
2023-04-19T18:18:43.982Z,58.20
2023-04-19T18:21:10.696Z,58.70
2023-04-19T18:23:37.439Z,60.30
2023-04-19T18:26:04.214Z,61.60
2023-04-19T18:28:31.113Z,60.10
2023-04-19T18:30:57.817Z,59.60
2023-04-19T18:33:24.520Z,59.60
2023-04-19T18:35:53.120Z,60.40
2023-04-19T18:38:20.832Z,58.60
2023-04-19T18:40:47.706Z,61.50
2023-04-19T18:43:14.357Z,60.80
2023-04-19T18:45:41.033Z,62.00
2023-04-19T18:48:07.880Z,60.00
2023-04-19T18:50:36.134Z,62.50
2023-04-19T18:53:03.251Z,62.30
2023-04-19T18:55:31.108Z,60.90
2023-04-19T18:57:57.738Z,62.00
2023-04-19T19:00:25.134Z,61.50
2023-04-19T19:02:52.871Z,62.20
2023-04-19T19:05:20.096Z,64.10
2023-04-19T19:07:47.273Z,64.60
2023-04-19T19:10:19.163Z,64.40
2023-04-19T19:12:47.446Z,65.60
2023-04-19T19:15:14.637Z,64.60
2023-04-19T19:17:41.362Z,64.60
2023-04-19T19:20:09.834Z,65.10
2023-04-19T19:22:36.547Z,64.80
2023-04-19T19:25:03.408Z,65.90
2023-04-19T19:27:30.097Z,66.30
2023-04-19T19:29:58.621Z,65.60
2023-04-19T19:32:25.456Z,66.60
2023-04-19T19:34:56.541Z,64.80
2023-04-19T19:37:27.521Z,66.10
2023-04-19T19:39:56.485Z,66.40
2023-04-19T19:42:24.821Z,65.60
2023-04-19T19:44:55.305Z,66.00
2023-04-19T19:47:23.661Z,66.90
2023-04-19T19:50:33.670Z,69.00
2023-04-19T19:52:37.649Z,66.40
2023-04-19T19:55:04.716Z,67.10
2023-04-19T19:58:18.693Z,68.60
2023-04-19T20:00:44.978Z,67.80
2023-04-19T20:03:06.357Z,69.40
2023-04-19T20:05:33.933Z,70.10
2023-04-19T20:08:10.378Z,71.90
2023-04-19T20:10:42.246Z,71.00
2023-04-19T20:13:09.478Z,70.40
2023-04-19T20:15:37.685Z,70.40
2023-04-19T20:18:04.977Z,70.10
2023-04-19T20:20:31.750Z,71.70
2023-04-19T20:22:58.390Z,72.40
2023-04-19T20:25:25.252Z,73.10
2023-04-19T20:27:51.875Z,72.70
2023-04-19T20:30:18.513Z,73.20
2023-04-19T20:32:45.374Z,74.10
2023-04-19T20:35:12.469Z,73.60
2023-04-19T20:37:39.777Z,73.80
2023-04-19T20:40:07.918Z,74.70
2023-04-19T20:42:34.548Z,76.30
2023-04-19T20:45:01.231Z,75.10
2023-04-19T20:47:27.965Z,74.90
2023-04-19T20:49:54.607Z,75.90
2023-04-19T20:52:21.241Z,76.30
2023-04-19T20:54:47.860Z,77.60
2023-04-19T20:57:15.200Z,77.90
2023-04-19T20:59:41.828Z,79.00
2023-04-19T21:02:08.667Z,80.20
2023-04-19T21:04:36.135Z,80.90
2023-04-19T21:07:03.139Z,81.40
2023-04-19T21:09:29.793Z,81.90
2023-04-19T21:11:56.508Z,81.30
2023-04-19T21:14:23.107Z,81.70
2023-04-19T21:16:49.781Z,81.70
2023-04-19T21:19:16.606Z,82.00
2023-04-19T21:21:43.456Z,80.90
2023-04-19T21:24:10.078Z,79.60
2023-04-19T21:26:36.704Z,79.20
2023-04-19T21:29:03.380Z,79.60
2023-04-19T21:31:30.112Z,79.10
2023-04-19T21:33:56.754Z,79.30
2023-04-19T21:36:23.379Z,83.10
2023-04-19T21:38:50.028Z,83.20
2023-04-19T21:41:16.660Z,87.50
2023-04-19T21:43:43.310Z,88.10
2023-04-19T21:46:09.992Z,89.80
2023-04-19T21:48:36.644Z,88.10
2023-04-19T21:51:04.036Z,87.00
2023-04-19T21:53:31.341Z,87.70
2023-04-19T21:55:58.054Z,88.80
2023-04-19T21:58:24.688Z,88.20
2023-04-19T22:00:53.370Z,87.20
2023-04-19T22:03:20.193Z,87.40
2023-04-19T22:05:47.065Z,89.90
2023-04-19T22:08:13.720Z,89.40
2023-04-19T22:10:41.046Z,88.50
2023-04-19T22:13:08.777Z,87.80
2023-04-19T22:15:36.368Z,89.20
2023-04-19T22:18:04.588Z,91.10
2023-04-19T22:20:33.659Z,91.60
2023-04-19T22:23:00.434Z,91.10
2023-04-19T22:25:27.304Z,91.00
2023-04-19T22:27:53.967Z,90.90
2023-04-19T22:30:20.778Z,90.60
2023-04-19T22:32:48.123Z,90.50
2023-04-19T22:35:15.249Z,90.70
2023-04-19T22:37:42.315Z,90.70
2023-04-19T22:40:09.742Z,90.90
2023-04-19T22:42:37.157Z,90.90
2023-04-19T22:45:04.158Z,91.00
2023-04-19T22:47:32.241Z,91.60
2023-04-19T22:49:59.266Z,94.10
2023-04-19T22:52:26.295Z,94.50
2023-04-19T22:54:52.908Z,94.30
2023-04-19T22:57:19.532Z,94.00
2023-04-19T22:59:46.145Z,94.00
2023-04-19T23:02:12.791Z,93.90
2023-04-19T23:04:39.440Z,93.50
2023-04-19T23:07:06.295Z,93.50
2023-04-19T23:09:32.970Z,94.10
2023-04-19T23:12:00.532Z,94.60
2023-04-19T23:14:28.318Z,95.60
2023-04-19T23:16:55.023Z,96.80
2023-04-19T23:19:22.737Z,98.00
2023-04-19T23:21:50.298Z,99.80
2023-04-19T23:24:17.772Z,99.90
2023-04-19T23:26:44.496Z,99.90
2023-04-19T23:29:11.125Z,99.90
2023-04-19T23:31:37.841Z,99.90
2023-04-19T23:34:04.609Z,99.90
2023-04-19T23:36:31.257Z,99.90
2023-04-19T23:38:57.960Z,99.90
2023-04-19T23:41:24.695Z,99.90
2023-04-19T23:43:51.490Z,99.90
2023-04-19T23:46:18.191Z,99.90
2023-04-19T23:48:44.878Z,99.90
2023-04-19T23:51:12.548Z,99.90
2023-04-19T23:53:39.215Z,99.90
2023-04-19T23:56:06.529Z,99.90
2023-04-19T23:58:33.152Z,99.90
